createdAt,value
2022-09-20T00:01:55.285Z,10.34
2022-09-20T00:04:22.044Z,10.40
2022-09-20T00:06:48.986Z,10.36
2022-09-20T00:11:57.091Z,10.23
2022-09-20T00:14:23.890Z,10.16
2022-09-20T00:16:52.570Z,10.10
2022-09-20T00:19:22.124Z,10.01
2022-09-20T00:21:49.567Z,10.10
2022-09-20T00:24:18.878Z,10.17
2022-09-20T00:26:45.765Z,10.12
2022-09-20T00:29:13.434Z,10.19
2022-09-20T00:31:43.118Z,10.20
2022-09-20T00:34:30.081Z,10.09
2022-09-20T00:37:00.671Z,9.85
2022-09-20T00:39:27.543Z,9.84
2022-09-20T00:41:54.807Z,9.91
2022-09-20T00:47:53.154Z,9.93
2022-09-20T00:50:26.876Z,10.00
2022-09-20T00:53:05.708Z,10.02
2022-09-20T00:55:47.504Z,9.98
2022-09-20T00:58:15.821Z,10.02
2022-09-20T01:00:48.374Z,10.15
2022-09-20T01:03:19.973Z,10.11
2022-09-20T01:05:47.041Z,10.01
2022-09-20T01:08:14.481Z,9.98
2022-09-20T01:10:41.599Z,9.97
2022-09-20T01:15:51.164Z,10.09
2022-09-20T01:18:20.562Z,10.20
2022-09-20T01:20:50.075Z,10.17
2022-09-20T01:23:32.296Z,10.14
2022-09-20T01:26:21.842Z,10.18
2022-09-20T01:28:52.647Z,10.21
2022-09-20T01:31:19.255Z,10.16
2022-09-20T01:33:52.249Z,10.13
2022-09-20T01:36:27.517Z,10.09
2022-09-20T01:39:08.584Z,9.97
2022-09-20T01:41:47.797Z,9.98
2022-09-20T01:44:55.902Z,10.01
2022-09-20T01:47:31.165Z,9.98
2022-09-20T01:50:08.424Z,9.89
2022-09-20T01:52:41.973Z,9.79
2022-09-20T01:55:38.287Z,9.70
2022-09-20T01:58:41.610Z,9.67
2022-09-20T02:01:42.781Z,9.69
2022-09-20T02:07:18.481Z,9.72
2022-09-20T02:09:57.906Z,9.72
2022-09-20T02:12:40.757Z,9.75
2022-09-20T02:15:33.132Z,9.68
2022-09-20T02:18:03.307Z,9.64
2022-09-20T02:20:43.062Z,9.55
2022-09-20T02:23:23.309Z,9.49
2022-09-20T02:25:59.525Z,9.54
2022-09-20T02:35:11.398Z,9.58
2022-09-20T02:37:51.488Z,9.40
2022-09-20T02:40:57.824Z,9.44
2022-09-20T02:43:46.847Z,9.35
2022-09-20T02:46:41.516Z,9.36
2022-09-20T02:49:51.249Z,9.29
2022-09-20T02:52:36.213Z,9.32
2022-09-20T02:58:14.679Z,9.25
2022-09-20T03:01:01.648Z,9.29
2022-09-20T03:03:53.839Z,9.25
2022-09-20T03:06:35.913Z,9.26
2022-09-20T03:09:31.152Z,9.28
2022-09-20T03:12:24.251Z,9.32
2022-09-20T03:15:16.821Z,9.27
2022-09-20T03:18:02.303Z,9.30
2022-09-20T03:20:33.819Z,9.26
2022-09-20T03:23:07.392Z,9.16
2022-09-20T03:25:41.039Z,9.14
2022-09-20T03:28:52.990Z,9.17
2022-09-20T03:32:11.406Z,9.27
2022-09-20T03:34:57.801Z,9.25
2022-09-20T03:37:55.212Z,9.10
2022-09-20T03:40:28.376Z,9.06
2022-09-20T03:43:14.051Z,9.09
2022-09-20T03:46:20.308Z,9.11
2022-09-20T03:49:25.461Z,9.07
2022-09-20T03:52:12.571Z,9.23
2022-09-20T03:55:08.808Z,9.22
2022-09-20T03:57:58.863Z,9.26
2022-09-20T04:01:09.508Z,9.08
2022-09-20T04:03:47.983Z,9.15
2022-09-20T04:12:30.463Z,8.96
2022-09-20T04:18:32.857Z,8.86
2022-09-20T04:21:42.180Z,8.82
2022-09-20T04:24:12.411Z,8.78
2022-09-20T04:30:24.037Z,8.79
2022-09-20T04:33:22.158Z,8.84
2022-09-20T04:39:06.479Z,8.88
2022-09-20T04:51:30.637Z,8.93
2022-09-20T04:57:19.463Z,8.80
2022-09-20T05:00:30.541Z,8.75
2022-09-20T05:03:34.509Z,8.73
2022-09-20T05:06:22.787Z,8.85
2022-09-20T05:09:19.007Z,8.85
2022-09-20T05:12:01.696Z,8.86
2022-09-20T05:15:05.486Z,8.92
2022-09-20T05:17:38.478Z,8.94
2022-09-20T05:20:11.954Z,9.05
2022-09-20T05:22:59.757Z,9.08
2022-09-20T05:25:49.455Z,9.13
2022-09-20T05:28:15.928Z,9.23
2022-09-20T05:30:47.390Z,9.28
2022-09-20T05:33:23.771Z,9.28
2022-09-20T05:36:16.876Z,9.29
2022-09-20T05:39:12.589Z,9.37
2022-09-20T05:42:03.379Z,9.29
2022-09-20T05:45:04.820Z,9.37
2022-09-20T05:47:44.768Z,9.27
2022-09-20T05:50:25.736Z,9.31
2022-09-20T05:53:04.411Z,9.39
2022-09-20T05:55:51.767Z,9.52
2022-09-20T05:58:29.764Z,9.60
2022-09-20T06:01:09.585Z,9.71
2022-09-20T06:03:49.065Z,9.69
2022-09-20T06:06:40.991Z,9.71
2022-09-20T06:09:26.705Z,9.69
2022-09-20T06:12:41.144Z,9.69
2022-09-20T06:15:19.729Z,9.81
2022-09-20T06:17:55.325Z,9.83
2022-09-20T06:20:43.012Z,9.84
2022-09-20T06:23:10.107Z,9.85
2022-09-20T06:25:45.201Z,9.99
2022-09-20T06:28:20.751Z,9.95
2022-09-20T06:30:52.837Z,9.99
2022-09-20T06:33:25.332Z,10.14
2022-09-20T06:36:20.465Z,10.27
2022-09-20T06:39:17.750Z,10.27
2022-09-20T06:41:44.998Z,10.37
2022-09-20T06:44:11.899Z,10.34
2022-09-20T06:46:39.305Z,10.39
2022-09-20T06:49:09.672Z,10.42
2022-09-20T06:51:38.939Z,10.57
2022-09-20T06:54:11.859Z,10.76
2022-09-20T06:56:38.421Z,10.78
2022-09-20T06:59:10.362Z,10.63
2022-09-20T07:01:37.772Z,10.48
2022-09-20T07:04:06.202Z,10.56
2022-09-20T07:06:35.119Z,10.55
2022-09-20T07:09:01.810Z,10.56
2022-09-20T07:11:28.521Z,10.57
2022-09-20T07:13:58.296Z,10.55
2022-09-20T07:16:26.486Z,10.78
2022-09-20T07:18:53.164Z,10.79
2022-09-20T07:21:21.310Z,10.84
2022-09-20T07:23:48.661Z,11.05
2022-09-20T07:26:26.939Z,10.89
2022-09-20T07:28:54.267Z,10.77
2022-09-20T07:31:26.435Z,10.73
2022-09-20T07:33:53.487Z,10.62
2022-09-20T07:36:20.517Z,10.69
2022-09-20T07:38:50.122Z,10.70
2022-09-20T07:41:20.544Z,10.86
2022-09-20T07:43:47.124Z,10.97
2022-09-20T07:46:14.079Z,10.91
2022-09-20T07:48:41.092Z,11.02
2022-09-20T07:51:11.358Z,11.13
2022-09-20T07:53:38.840Z,11.29
2022-09-20T07:56:12.964Z,11.70
2022-09-20T07:58:40.110Z,12.32
2022-09-20T08:01:13.436Z,12.32
2022-09-20T08:03:40.832Z,12.33
2022-09-20T08:06:15.144Z,12.18
2022-09-20T08:08:42.731Z,11.96
2022-09-20T08:11:15.727Z,11.43
2022-09-20T08:16:37.268Z,11.59
2022-09-20T08:19:04.365Z,11.79
2022-09-20T08:21:32.904Z,11.66
2022-09-20T08:24:00.881Z,11.88
2022-09-20T08:26:29.554Z,11.82
2022-09-20T08:28:59.096Z,11.85
2022-09-20T08:31:33.233Z,12.02
2022-09-20T08:34:21.560Z,12.03
2022-09-20T08:36:56.768Z,12.02
2022-09-20T08:42:39.096Z,12.05
2022-09-20T08:45:38.304Z,12.29
2022-09-20T08:48:14.410Z,11.97
2022-09-20T08:50:42.135Z,12.16
2022-09-20T08:53:14.918Z,12.02
2022-09-20T08:55:43.133Z,11.60
2022-09-20T08:58:12.327Z,11.36
2022-09-20T09:00:40.555Z,11.32
2022-09-20T09:03:13.424Z,11.43
2022-09-20T09:05:50.707Z,11.55
2022-09-20T09:08:21.274Z,11.45
2022-09-20T09:10:58.243Z,11.68
2022-09-20T09:13:46.295Z,11.70
2022-09-20T09:16:22.675Z,11.56
2022-09-20T09:18:52.298Z,11.44
2022-09-20T09:21:23.157Z,11.57
2022-09-20T09:24:10.047Z,11.96
2022-09-20T09:26:40.877Z,13.01
2022-09-20T09:29:18.463Z,14.48
2022-09-20T09:31:48.283Z,14.85
2022-09-20T09:34:35.480Z,16.64
2022-09-20T09:37:02.677Z,16.25
2022-09-20T09:39:34.616Z,15.50
2022-09-20T09:42:20.991Z,14.60
2022-09-20T09:44:50.587Z,14.11
2022-09-20T09:47:29.881Z,13.84
2022-09-20T09:50:05.031Z,13.47
2022-09-20T09:52:36.581Z,12.54
2022-09-20T09:55:05.794Z,12.73
2022-09-20T09:58:24.228Z,12.68
2022-09-20T10:00:53.876Z,12.65
2022-09-20T10:03:49.023Z,12.63
2022-09-20T10:06:23.085Z,12.76
2022-09-20T10:09:01.261Z,12.82
2022-09-20T10:12:04.656Z,12.69
2022-09-20T10:14:58.653Z,12.90
2022-09-20T10:20:53.425Z,13.47
2022-09-20T10:26:38.949Z,13.59
2022-09-20T10:29:24.453Z,13.39
2022-09-20T10:32:15.247Z,12.83
2022-09-20T10:35:00.160Z,12.61
2022-09-20T10:37:55.533Z,12.32
2022-09-20T10:40:53.193Z,12.35
2022-09-20T10:44:04.257Z,12.65
2022-09-20T10:49:57.873Z,13.23
2022-09-20T10:52:24.468Z,13.23
2022-09-20T10:55:19.023Z,13.20
2022-09-20T10:57:48.947Z,13.25
2022-09-20T11:00:50.507Z,13.03
2022-09-20T11:03:53.130Z,13.11
2022-09-20T11:06:37.960Z,13.66
2022-09-20T11:09:15.584Z,13.91
2022-09-20T11:11:56.530Z,14.11
2022-09-20T11:14:36.569Z,13.86
2022-09-20T11:17:28.648Z,13.41
2022-09-20T11:20:07.538Z,13.20
2022-09-20T11:22:48.253Z,13.49
2022-09-20T11:26:03.581Z,13.47
2022-09-20T11:28:36.949Z,14.15
2022-09-20T11:31:11.288Z,14.25
2022-09-20T11:33:47.636Z,14.19
2022-09-20T11:36:21.358Z,14.40
2022-09-20T11:39:11.051Z,13.91
2022-09-20T11:41:38.402Z,13.80
2022-09-20T11:44:12.726Z,13.64
2022-09-20T11:47:06.434Z,13.84
2022-09-20T11:50:07.148Z,13.97
2022-09-20T11:52:53.340Z,14.02
2022-09-20T11:55:50.379Z,13.68
2022-09-20T11:58:21.061Z,13.95
2022-09-20T12:01:00.548Z,13.56
2022-09-20T12:03:47.398Z,13.50
2022-09-20T12:09:50.293Z,13.65
2022-09-20T12:13:07.428Z,13.67
2022-09-20T12:15:44.555Z,14.10
2022-09-20T12:18:53.219Z,14.39
2022-09-20T12:21:29.519Z,14.62
2022-09-20T12:24:29.347Z,14.66
2022-09-20T12:30:38.260Z,14.75
2022-09-20T12:36:47.457Z,14.38
2022-09-20T12:46:22.791Z,14.11
2022-09-20T12:48:52.737Z,14.46
2022-09-20T12:51:48.747Z,14.57
2022-09-20T12:54:23.712Z,14.25
2022-09-20T12:56:55.129Z,14.05
2022-09-20T12:59:41.813Z,14.03
2022-09-20T13:02:47.623Z,13.81
2022-09-20T13:05:45.862Z,13.83
2022-09-20T13:08:20.456Z,13.76
2022-09-20T13:11:13.502Z,13.78
2022-09-20T13:13:44.925Z,14.00
2022-09-20T13:16:37.456Z,13.94
2022-09-20T13:22:01.327Z,14.24
2022-09-20T13:24:33.409Z,14.72
2022-09-20T13:27:25.353Z,15.10
2022-09-20T13:33:28.292Z,15.08
2022-09-20T13:35:59.797Z,14.81
2022-09-20T13:38:34.951Z,14.64
2022-09-20T13:41:39.673Z,14.78
2022-09-20T13:44:25.795Z,14.79
2022-09-20T13:46:53.056Z,14.54
2022-09-20T13:49:24.814Z,14.29
2022-09-20T13:52:02.021Z,14.47
2022-09-20T13:54:30.929Z,14.52
2022-09-20T13:57:17.753Z,14.50
2022-09-20T13:59:47.971Z,14.71
2022-09-20T14:02:31.741Z,14.87
2022-09-20T14:05:07.802Z,14.90
2022-09-20T14:11:33.340Z,15.69
2022-09-20T14:14:05.813Z,15.50
2022-09-20T14:16:44.434Z,15.00
2022-09-20T14:19:21.315Z,14.88
2022-09-20T14:22:24.767Z,14.82
2022-09-20T14:28:29.210Z,15.09
2022-09-20T14:31:25.781Z,15.16
2022-09-20T14:34:02.696Z,15.48
2022-09-20T14:36:46.197Z,15.85
2022-09-20T14:39:19.339Z,16.12
2022-09-20T14:44:43.805Z,16.16
2022-09-20T14:47:15.633Z,16.13
2022-09-20T14:49:45.704Z,15.20
2022-09-20T14:52:54.682Z,14.60
2022-09-20T14:59:03.011Z,13.96
2022-09-20T15:05:03.510Z,13.93
2022-09-20T15:10:34.215Z,13.90
2022-09-20T15:13:01.372Z,14.04
2022-09-20T15:15:35.144Z,13.94
2022-09-20T15:18:03.810Z,13.92
2022-09-20T15:25:56.483Z,13.67
2022-09-20T15:28:33.241Z,13.69
2022-09-20T15:31:00.803Z,13.73
2022-09-20T15:33:40.520Z,13.59
2022-09-20T15:39:00.240Z,13.71
2022-09-20T15:41:31.548Z,13.80
2022-09-20T15:43:59.433Z,13.79
2022-09-20T15:46:31.743Z,13.79
2022-09-20T15:49:01.080Z,13.91
2022-09-20T15:54:16.123Z,13.60
2022-09-20T16:00:02.342Z,13.21
2022-09-20T16:02:29.955Z,13.31
2022-09-20T16:05:02.205Z,13.35
2022-09-20T16:07:35.097Z,13.40
2022-09-20T16:10:02.517Z,13.16
2022-09-20T16:12:42.948Z,13.08
2022-09-20T16:15:10.430Z,13.11
2022-09-20T16:18:03.177Z,13.18
2022-09-20T16:23:26.190Z,13.43
2022-09-20T16:25:55.909Z,13.55
2022-09-20T16:31:49.309Z,13.27
2022-09-20T16:37:46.900Z,12.82
2022-09-20T16:40:14.346Z,12.79
2022-09-20T16:42:56.658Z,12.84
2022-09-20T16:45:27.635Z,12.73
2022-09-20T16:48:04.333Z,12.76
2022-09-20T16:50:33.235Z,12.14
2022-09-20T16:53:02.330Z,11.93
2022-09-20T16:55:29.084Z,12.07
2022-09-20T16:57:56.623Z,12.15
2022-09-20T17:00:23.357Z,12.08
2022-09-20T17:02:51.670Z,12.03
2022-09-20T17:05:19.831Z,11.98
2022-09-20T17:07:47.262Z,11.97
2022-09-20T17:10:16.154Z,11.86
2022-09-20T17:12:55.622Z,11.72
2022-09-20T17:15:25.213Z,11.74
2022-09-20T17:17:55.970Z,11.83
2022-09-20T17:20:23.802Z,11.91
2022-09-20T17:22:57.663Z,11.89
2022-09-20T17:25:25.788Z,11.88
2022-09-20T17:27:53.347Z,11.84
2022-09-20T17:30:19.965Z,11.69
2022-09-20T17:32:51.373Z,11.65
2022-09-20T17:35:18.894Z,11.52
2022-09-20T17:37:46.047Z,11.41
2022-09-20T17:40:13.402Z,11.22
2022-09-20T17:42:40.634Z,11.08
2022-09-20T17:45:07.895Z,11.13
2022-09-20T17:47:34.680Z,11.20
2022-09-20T17:50:01.731Z,11.22
2022-09-20T17:52:28.641Z,11.06
2022-09-20T17:54:55.549Z,11.05
2022-09-20T17:57:22.940Z,10.99
2022-09-20T17:59:49.967Z,11.00
2022-09-20T18:02:20.953Z,11.00
2022-09-20T18:04:49.855Z,11.03
2022-09-20T18:07:16.587Z,10.97
2022-09-20T18:12:31.698Z,10.77
2022-09-20T18:14:58.796Z,10.83
2022-09-20T18:17:25.671Z,10.88
2022-09-20T18:19:52.697Z,10.82
2022-09-20T18:22:20.707Z,10.76
2022-09-20T18:24:51.002Z,10.71
2022-09-20T18:27:17.956Z,10.80
2022-09-20T18:29:56.884Z,10.78
2022-09-20T18:32:26.431Z,10.64
2022-09-20T18:34:55.968Z,10.60
2022-09-20T18:37:22.590Z,10.51
2022-09-20T18:39:49.726Z,10.58
2022-09-20T18:42:19.126Z,10.48
2022-09-20T18:44:45.943Z,10.33
2022-09-20T18:47:12.580Z,10.26
2022-09-20T18:49:39.146Z,10.30
2022-09-20T18:52:07.700Z,10.28
2022-09-20T18:54:34.141Z,10.33
2022-09-20T18:57:00.998Z,10.33
2022-09-20T18:59:28.310Z,10.28
2022-09-20T19:02:14.547Z,10.18
2022-09-20T19:04:57.017Z,10.07
2022-09-20T19:07:51.683Z,10.03
2022-09-20T19:10:34.836Z,10.05
2022-09-20T19:13:42.668Z,10.05
2022-09-20T19:16:13.610Z,10.08
2022-09-20T19:19:12.915Z,9.93
2022-09-20T19:22:08.337Z,9.87
2022-09-20T19:25:01.579Z,9.89
2022-09-20T19:27:29.058Z,9.92
2022-09-20T19:29:56.660Z,9.85
2022-09-20T19:32:26.147Z,9.77
2022-09-20T19:34:56.973Z,9.63
2022-09-20T19:37:37.334Z,9.67
2022-09-20T19:40:03.937Z,9.75
2022-09-20T19:43:03.279Z,9.76
2022-09-20T19:45:45.090Z,9.77
2022-09-20T19:48:42.551Z,9.68
2022-09-20T19:51:14.078Z,9.61
2022-09-20T19:53:41.239Z,9.62
2022-09-20T19:56:27.832Z,9.56
2022-09-20T19:58:56.278Z,9.66
2022-09-20T20:01:30.137Z,9.64
2022-09-20T20:03:57.155Z,9.68
2022-09-20T20:06:23.837Z,9.70
2022-09-20T20:09:04.156Z,9.61
2022-09-20T20:14:48.491Z,9.29
2022-09-20T20:17:21.274Z,9.14
2022-09-20T20:20:10.349Z,9.06
2022-09-20T20:23:11.222Z,8.96
2022-09-20T20:25:48.795Z,8.97
2022-09-20T20:28:15.609Z,9.06
2022-09-20T20:30:43.013Z,9.11
2022-09-20T20:33:16.238Z,9.17
2022-09-20T20:35:42.873Z,9.12
2022-09-20T20:38:10.597Z,9.13
2022-09-20T20:40:38.032Z,9.14
2022-09-20T20:43:06.213Z,9.07
2022-09-20T20:45:33.067Z,9.08
2022-09-20T20:47:59.827Z,8.99
2022-09-20T20:50:27.925Z,9.03
2022-09-20T20:52:55.628Z,9.10
2022-09-20T20:55:23.009Z,9.09
2022-09-20T20:57:58.260Z,9.19
2022-09-20T21:00:26.113Z,9.13
2022-09-20T21:03:02.791Z,9.01
2022-09-20T21:05:29.605Z,8.95
2022-09-20T21:07:57.726Z,8.83
2022-09-20T21:10:24.421Z,8.68
2022-09-20T21:12:54.588Z,8.58
2022-09-20T21:15:21.486Z,8.52
2022-09-20T21:17:55.048Z,8.51
2022-09-20T21:20:24.546Z,8.55
2022-09-20T21:22:51.306Z,8.50
2022-09-20T21:25:17.920Z,8.49
2022-09-20T21:27:44.676Z,8.44
2022-09-20T21:30:11.822Z,8.34
2022-09-20T21:32:38.669Z,8.38
2022-09-20T21:35:08.583Z,8.30
2022-09-20T21:37:35.216Z,8.34
2022-09-20T21:40:02.412Z,8.23
2022-09-20T21:42:29.513Z,8.17
2022-09-20T21:44:56.916Z,8.17
2022-09-20T21:47:23.547Z,8.18
2022-09-20T21:49:50.005Z,8.16
2022-09-20T21:52:16.472Z,8.26
2022-09-20T21:54:43.098Z,8.33
2022-09-20T21:57:13.801Z,8.35
2022-09-20T21:59:40.783Z,8.28
2022-09-20T22:02:07.475Z,8.22
2022-09-20T22:04:34.188Z,8.07
2022-09-20T22:07:02.562Z,7.84
2022-09-20T22:09:29.178Z,7.82
2022-09-20T22:11:56.030Z,7.74
2022-09-20T22:14:22.545Z,7.68
2022-09-20T22:16:49.494Z,7.54
2022-09-20T22:19:17.667Z,7.45
2022-09-20T22:21:46.683Z,7.33
2022-09-20T22:24:14.806Z,7.34
2022-09-20T22:26:44.312Z,7.39
2022-09-20T22:29:11.194Z,7.42
2022-09-20T22:31:45.537Z,7.36
2022-09-20T22:34:21.438Z,7.46
2022-09-20T22:36:48.367Z,7.53
2022-09-20T22:39:15.384Z,7.65
2022-09-20T22:41:42.889Z,7.73
2022-09-20T22:44:10.456Z,7.76
2022-09-20T22:46:38.017Z,7.59
2022-09-20T22:49:05.847Z,7.59
2022-09-20T22:51:33.471Z,7.15
2022-09-20T22:54:04.481Z,7.01
2022-09-20T22:56:31.741Z,6.89
2022-09-20T22:59:00.567Z,6.83
2022-09-20T23:01:32.680Z,6.82
2022-09-20T23:04:00.911Z,6.90
2022-09-20T23:06:30.277Z,6.90
2022-09-20T23:09:01.538Z,7.06
2022-09-20T23:11:28.756Z,7.16
2022-09-20T23:14:00.420Z,7.19
2022-09-20T23:16:29.118Z,7.28
2022-09-20T23:18:57.277Z,7.33
2022-09-20T23:21:24.445Z,7.35
2022-09-20T23:24:00.066Z,7.35
2022-09-20T23:26:29.784Z,7.36
2022-09-20T23:29:02.543Z,7.39
2022-09-20T23:31:30.534Z,7.23
2022-09-20T23:34:02.412Z,7.15
2022-09-20T23:36:31.423Z,7.14
2022-09-20T23:38:58.281Z,7.12
2022-09-20T23:41:26.584Z,6.76
2022-09-20T23:43:53.220Z,6.54
2022-09-20T23:46:22.503Z,6.33
2022-09-20T23:48:50.607Z,6.30
2022-09-20T23:51:20.029Z,6.26
2022-09-20T23:53:46.552Z,6.29
2022-09-20T23:56:13.784Z,6.35
2022-09-20T23:58:42.578Z,6.44
